Portada
METAR-TAF:

METAR-TAF

Aeropuertos :

Lyon, Francia

latitud: 45-43N, longitud: 004-57E, altitud: 200 m

Observación

El informe se hizo hace 22 minutos, a las 11:00 UTC
Viento 19 kt del sur
Temperatura 16°C
Humedad 59%
Presión 1016 hPa
Visibilidad 10 km o más
sin nubes por debajo de 1500 m y sin presencia de cumulonimbus.

METAR: LFLY 231100Z AUTO 19019KT CAVOK 16/08 Q1016 TEMPO 18025G45KT

Hora: 12:22 (11:22 UTC)

Pronóstico

El informe se hizo hace 6 horas y 22 minutos, a las 05:00 UTC
Pronóstico válido del 23 a las 06 UTC al 24 a las 06 UTC
Viento 15 kt del sur con ráfagas de 25 kt
Visibilidad 10 km o más
sin nubes por debajo de 1500 m y sin presencia de cumulonimbus.
Probabilidad 40% :
Temporalmente
del 23 a las 06 UTC al 23 a las 15 UTC
Viento 25 kt del sur con ráfagas de 45 kt

TAF: LFLY 230500Z 2306/2406 18015G25KT CAVOK PROB40 TEMPO 2306/2315 18025G45KT

Observaciones y pronósticos meteorológicos de más de 4000 aeropuertos (mensajes METAR y TAF).

Los puntos amarillos y rojos representan las estaciones disponibles.

Ponga el ratón en el punto deseado para ver el nombre de la estación.

Haga clic para ver las observaciones y los pronósticos meteorológicos.

Para cambiar el mapa : haga clic en los botones verdes con una cruz de color negro para hacer un zoom, en el botón verde con un guión para alejar o en las flechas verdes para mapas adyacentes.


METAR-TAF: